sensor_id;sensor_type;location;lat;lon;timestamp;pressure;altitude;pressure_sealevel;temperature;humidity
50310;BME280;36207;51.850;21.698;2022-07-29T00:02:18;100415.34;;;14.09;63.78
50310;BME280;36207;51.850;21.698;2022-07-29T00:04:44;100416.01;;;14.09;63.67
50310;BME280;36207;51.850;21.698;2022-07-29T00:07:10;100417.38;;;14.10;63.49
50310;BME280;36207;51.850;21.698;2022-07-29T00:09:37;100415.09;;;14.08;63.71
50310;BME280;36207;51.850;21.698;2022-07-29T00:12:04;100412.64;;;14.06;63.74
50310;BME280;36207;51.850;21.698;2022-07-29T00:14:31;100413.17;;;14.08;63.81
50310;BME280;36207;51.850;21.698;2022-07-29T00:16:57;100414.96;;;14.12;64.04
50310;BME280;36207;51.850;21.698;2022-07-29T00:19:23;100415.83;;;14.17;64.04
50310;BME280;36207;51.850;21.698;2022-07-29T00:21:50;100413.36;;;14.18;63.87
50310;BME280;36207;51.850;21.698;2022-07-29T00:24:16;100411.27;;;14.15;63.81
50310;BME280;36207;51.850;21.698;2022-07-29T00:26:43;100409.06;;;14.09;63.73
50310;BME280;36207;51.850;21.698;2022-07-29T00:29:09;100406.40;;;14.06;63.89
50310;BME280;36207;51.850;21.698;2022-07-29T00:31:35;100405.99;;;14.04;63.76
50310;BME280;36207;51.850;21.698;2022-07-29T00:34:02;100405.11;;;13.98;63.67
50310;BME280;36207;51.850;21.698;2022-07-29T00:36:28;100404.35;;;13.96;63.59
50310;BME280;36207;51.850;21.698;2022-07-29T00:38:54;100403.38;;;13.96;63.81
50310;BME280;36207;51.850;21.698;2022-07-29T00:41:21;100405.02;;;13.96;64.05
50310;BME280;36207;51.850;21.698;2022-07-29T00:43:47;100407.02;;;13.94;64.23
50310;BME280;36207;51.850;21.698;2022-07-29T00:46:13;100409.54;;;13.94;64.36
50310;BME280;36207;51.850;21.698;2022-07-29T00:48:40;100413.09;;;13.93;64.30
50310;BME280;36207;51.850;21.698;2022-07-29T00:51:07;100416.14;;;13.89;63.88
50310;BME280;36207;51.850;21.698;2022-07-29T00:53:34;100415.55;;;13.84;64.03
50310;BME280;36207;51.850;21.698;2022-07-29T00:56:01;100411.02;;;13.80;64.05
50310;BME280;36207;51.850;21.698;2022-07-29T00:58:28;100408.39;;;13.79;64.05
50310;BME280;36207;51.850;21.698;2022-07-29T01:00:54;100405.96;;;13.80;64.10
50310;BME280;36207;51.850;21.698;2022-07-29T01:03:20;100408.90;;;13.80;64.17
50310;BME280;36207;51.850;21.698;2022-07-29T01:05:47;100410.59;;;13.80;64.29
50310;BME280;36207;51.850;21.698;2022-07-29T01:08:15;100408.02;;;13.76;64.11
50310;BME280;36207;51.850;21.698;2022-07-29T01:10:43;100405.77;;;13.74;64.17
50310;BME280;36207;51.850;21.698;2022-07-29T01:13:11;100408.20;;;13.72;64.18
50310;BME280;36207;51.850;21.698;2022-07-29T01:15:43;100411.35;;;13.69;64.25
50310;BME280;36207;51.850;21.698;2022-07-29T01:18:18;100412.27;;;13.66;64.12
50310;BME280;36207;51.850;21.698;2022-07-29T01:26:31;100409.79;;;13.74;64.41
50310;BME280;36207;51.850;21.698;2022-07-29T01:34:53;100412.76;;;13.74;64.46
50310;BME280;36207;51.850;21.698;2022-07-29T01:39:49;100414.64;;;13.75;64.68
50310;BME280;36207;51.850;21.698;2022-07-29T01:42:39;100412.00;;;13.80;64.99
50310;BME280;36207;51.850;21.698;2022-07-29T01:45:16;100415.59;;;13.84;64.96
50310;BME280;36207;51.850;21.698;2022-07-29T01:48:11;100412.39;;;13.85;64.99
50310;BME280;36207;51.850;21.698;2022-07-29T01:50:35;100410.11;;;13.85;65.02
50310;BME280;36207;51.850;21.698;2022-07-29T01:53:07;100409.46;;;13.86;64.88
50310;BME280;36207;51.850;21.698;2022-07-29T01:55:41;100411.05;;;13.88;64.97
50310;BME280;36207;51.850;21.698;2022-07-29T01:58:08;100405.15;;;13.88;64.91
50310;BME280;36207;51.850;21.698;2022-07-29T02:00:36;100406.95;;;13.86;64.91
50310;BME280;36207;51.850;21.698;2022-07-29T02:03:07;100408.31;;;13.83;65.09
50310;BME280;36207;51.850;21.698;2022-07-29T02:05:38;100405.92;;;13.82;64.99
50310;BME280;36207;51.850;21.698;2022-07-29T02:08:06;100409.00;;;13.81;64.96
50310;BME280;36207;51.850;21.698;2022-07-29T02:10:35;100411.96;;;13.76;64.88
50310;BME280;36207;51.850;21.698;2022-07-29T02:13:05;100415.84;;;13.73;64.87
50310;BME280;36207;51.850;21.698;2022-07-29T02:15:35;100417.63;;;13.75;64.68
50310;BME280;36207;51.850;21.698;2022-07-29T02:18:07;100421.45;;;13.76;65.11
50310;BME280;36207;51.850;21.698;2022-07-29T02:20:36;100419.27;;;13.79;65.18
50310;BME280;36207;51.850;21.698;2022-07-29T02:23:04;100419.33;;;13.81;65.23
50310;BME280;36207;51.850;21.698;2022-07-29T02:25:31;100418.45;;;13.81;65.20
50310;BME280;36207;51.850;21.698;2022-07-29T02:27:58;100422.02;;;13.77;64.91
50310;BME280;36207;51.850;21.698;2022-07-29T02:30:27;100421.42;;;13.69;64.85
50310;BME280;36207;51.850;21.698;2022-07-29T02:32:54;100421.55;;;13.62;65.10
50310;BME280;36207;51.850;21.698;2022-07-29T02:35:21;100419.06;;;13.58;65.04
50310;BME280;36207;51.850;21.698;2022-07-29T02:37:49;100421.41;;;13.54;64.94
50310;BME280;36207;51.850;21.698;2022-07-29T02:40:38;100420.33;;;13.52;64.97
50310;BME280;36207;51.850;21.698;2022-07-29T02:43:06;100418.33;;;13.51;64.67
50310;BME280;36207;51.850;21.698;2022-07-29T02:45:33;100420.18;;;13.47;64.75
50310;BME280;36207;51.850;21.698;2022-07-29T02:48:06;100424.13;;;13.43;64.58
50310;BME280;36207;51.850;21.698;2022-07-29T02:50:37;100420.40;;;13.38;64.77
50310;BME280;36207;51.850;21.698;2022-07-29T02:53:15;100418.09;;;13.35;64.96
50310;BME280;36207;51.850;21.698;2022-07-29T02:55:51;100424.16;;;13.36;65.22
50310;BME280;36207;51.850;21.698;2022-07-29T02:58:45;100426.27;;;13.38;65.31
50310;BME280;36207;51.850;21.698;2022-07-29T03:01:15;100425.19;;;13.43;65.38
50310;BME280;36207;51.850;21.698;2022-07-29T03:03:46;100421.32;;;13.47;65.45
50310;BME280;36207;51.850;21.698;2022-07-29T03:06:15;100418.11;;;13.48;65.39
50310;BME280;36207;51.850;21.698;2022-07-29T03:08:44;100421.74;;;13.47;65.36
50310;BME280;36207;51.850;21.698;2022-07-29T03:11:12;100425.73;;;13.46;65.49
50310;BME280;36207;51.850;21.698;2022-07-29T03:13:39;100427.14;;;13.43;65.48
50310;BME280;36207;51.850;21.698;2022-07-29T03:16:06;100431.67;;;13.39;65.29
50310;BME280;36207;51.850;21.698;2022-07-29T03:18:35;100436.34;;;13.38;65.38
50310;BME280;36207;51.850;21.698;2022-07-29T03:21:02;100438.64;;;13.38;65.43
50310;BME280;36207;51.850;21.698;2022-07-29T03:23:29;100438.43;;;13.41;65.70
50310;BME280;36207;51.850;21.698;2022-07-29T03:25:56;100435.27;;;13.47;65.92
50310;BME280;36207;51.850;21.698;2022-07-29T03:28:23;100435.73;;;13.51;65.83
50310;BME280;36207;51.850;21.698;2022-07-29T03:30:49;100438.17;;;13.55;65.94
50310;BME280;36207;51.850;21.698;2022-07-29T03:33:16;100441.91;;;13.59;65.86
50310;BME280;36207;51.850;21.698;2022-07-29T03:35:42;100440.28;;;13.65;66.03
50310;BME280;36207;51.850;21.698;2022-07-29T03:38:09;100437.73;;;13.73;65.95
50310;BME280;36207;51.850;21.698;2022-07-29T03:40:42;100439.89;;;13.80;65.94
50310;BME280;36207;51.850;21.698;2022-07-29T03:43:11;100441.02;;;13.87;66.04
50310;BME280;36207;51.850;21.698;2022-07-29T03:45:44;100440.30;;;13.93;66.29
50310;BME280;36207;51.850;21.698;2022-07-29T03:48:14;100441.35;;;13.99;66.17
50310;BME280;36207;51.850;21.698;2022-07-29T03:50:41;100446.15;;;14.05;66.24
50310;BME280;36207;51.850;21.698;2022-07-29T03:53:08;100449.41;;;14.12;66.41
50310;BME280;36207;51.850;21.698;2022-07-29T03:55:44;100443.46;;;14.19;66.51
50310;BME280;36207;51.850;21.698;2022-07-29T03:58:12;100442.19;;;14.26;66.61
50310;BME280;36207;51.850;21.698;2022-07-29T04:00:39;100441.16;;;14.30;66.56
50310;BME280;36207;51.850;21.698;2022-07-29T04:03:06;100438.95;;;14.34;66.49
50310;BME280;36207;51.850;21.698;2022-07-29T04:05:32;100438.78;;;14.38;66.51
50310;BME280;36207;51.850;21.698;2022-07-29T04:07:59;100439.88;;;14.41;66.61
50310;BME280;36207;51.850;21.698;2022-07-29T04:10:25;100444.50;;;14.45;66.44
50310;BME280;36207;51.850;21.698;2022-07-29T04:12:51;100441.64;;;14.51;66.56
50310;BME280;36207;51.850;21.698;2022-07-29T04:15:18;100440.91;;;14.57;66.73
50310;BME280;36207;51.850;21.698;2022-07-29T04:17:45;100444.76;;;14.63;66.83
50310;BME280;36207;51.850;21.698;2022-07-29T04:20:11;100447.08;;;14.68;66.75
50310;BME280;36207;51.850;21.698;2022-07-29T04:22:40;100442.79;;;14.76;66.69
50310;BME280;36207;51.850;21.698;2022-07-29T04:25:07;100439.62;;;14.85;66.68
50310;BME280;36207;51.850;21.698;2022-07-29T04:27:33;100437.29;;;14.95;66.91
50310;BME280;36207;51.850;21.698;2022-07-29T04:30:00;100431.75;;;15.03;66.92
50310;BME280;36207;51.850;21.698;2022-07-29T04:32:26;100432.67;;;15.12;67.00
50310;BME280;36207;51.850;21.698;2022-07-29T04:34:53;100434.96;;;15.22;66.99
50310;BME280;36207;51.850;21.698;2022-07-29T04:37:19;100433.34;;;15.35;66.96
50310;BME280;36207;51.850;21.698;2022-07-29T04:39:46;100430.95;;;15.48;67.08
50310;BME280;36207;51.850;21.698;2022-07-29T04:42:12;100433.13;;;15.60;67.37
50310;BME280;36207;51.850;21.698;2022-07-29T04:44:38;100436.96;;;15.72;67.20
50310;BME280;36207;51.850;21.698;2022-07-29T04:47:07;100435.83;;;15.80;66.91
50310;BME280;36207;51.850;21.698;2022-07-29T04:49:37;100436.86;;;15.92;67.02
50310;BME280;36207;51.850;21.698;2022-07-29T04:52:05;100436.52;;;16.05;67.37
50310;BME280;36207;51.850;21.698;2022-07-29T04:54:31;100429.45;;;16.15;67.14
50310;BME280;36207;51.850;21.698;2022-07-29T04:56:58;100431.52;;;16.25;67.33
50310;BME280;36207;51.850;21.698;2022-07-29T04:59:24;100432.11;;;16.35;67.24
50310;BME280;36207;51.850;21.698;2022-07-29T05:01:52;100431.41;;;16.47;67.20
50310;BME280;36207;51.850;21.698;2022-07-29T05:04:18;100439.31;;;16.60;67.33
50310;BME280;36207;51.850;21.698;2022-07-29T05:06:45;100437.83;;;16.71;67.36
50310;BME280;36207;51.850;21.698;2022-07-29T05:09:11;100443.39;;;16.81;67.08
50310;BME280;36207;51.850;21.698;2022-07-29T05:11:37;100445.14;;;16.90;66.95
50310;BME280;36207;51.850;21.698;2022-07-29T05:14:04;100438.59;;;17.02;67.01
50310;BME280;36207;51.850;21.698;2022-07-29T05:16:30;100445.14;;;17.13;66.92
50310;BME280;36207;51.850;21.698;2022-07-29T05:18:57;100453.45;;;17.23;67.00
50310;BME280;36207;51.850;21.698;2022-07-29T05:21:23;100450.84;;;17.31;66.92
50310;BME280;36207;51.850;21.698;2022-07-29T05:23:49;100446.77;;;17.40;67.19
50310;BME280;36207;51.850;21.698;2022-07-29T05:26:16;100447.58;;;17.50;66.96
50310;BME280;36207;51.850;21.698;2022-07-29T05:28:42;100452.06;;;17.59;66.90
50310;BME280;36207;51.850;21.698;2022-07-29T05:31:08;100451.17;;;17.69;66.75
50310;BME280;36207;51.850;21.698;2022-07-29T05:33:35;100452.98;;;17.79;66.77
50310;BME280;36207;51.850;21.698;2022-07-29T05:36:01;100455.39;;;17.89;66.68
50310;BME280;36207;51.850;21.698;2022-07-29T05:38:28;100450.19;;;17.97;66.54
50310;BME280;36207;51.850;21.698;2022-07-29T05:40:56;100454.20;;;18.01;66.40
50310;BME280;36207;51.850;21.698;2022-07-29T05:43:24;100455.41;;;18.08;66.27
50310;BME280;36207;51.850;21.698;2022-07-29T05:45:50;100453.75;;;18.18;66.39
50310;BME280;36207;51.850;21.698;2022-07-29T05:48:16;100450.09;;;18.30;66.46
50310;BME280;36207;51.850;21.698;2022-07-29T05:50:43;100450.97;;;18.41;66.20
50310;BME280;36207;51.850;21.698;2022-07-29T05:53:09;100454.86;;;18.48;66.17
50310;BME280;36207;51.850;21.698;2022-07-29T05:55:35;100449.33;;;18.54;66.06
50310;BME280;36207;51.850;21.698;2022-07-29T05:58:02;100452.04;;;18.59;66.01
50310;BME280;36207;51.850;21.698;2022-07-29T06:00:29;100449.60;;;18.66;65.90
50310;BME280;36207;51.850;21.698;2022-07-29T06:02:56;100442.17;;;18.74;65.86
50310;BME280;36207;51.850;21.698;2022-07-29T06:05:23;100440.34;;;18.84;65.70
50310;BME280;36207;51.850;21.698;2022-07-29T06:07:49;100440.02;;;18.95;65.68
50310;BME280;36207;51.850;21.698;2022-07-29T06:10:16;100435.19;;;19.04;65.28
50310;BME280;36207;51.850;21.698;2022-07-29T06:12:42;100432.81;;;19.11;65.41
50310;BME280;36207;51.850;21.698;2022-07-29T06:15:09;100431.54;;;19.18;65.03
50310;BME280;36207;51.850;21.698;2022-07-29T06:17:35;100429.40;;;19.26;65.19
50310;BME280;36207;51.850;21.698;2022-07-29T06:20:02;100430.32;;;19.33;65.20
50310;BME280;36207;51.850;21.698;2022-07-29T06:22:29;100429.29;;;19.39;65.06
50310;BME280;36207;51.850;21.698;2022-07-29T06:24:56;100424.52;;;19.44;65.06
50310;BME280;36207;51.850;21.698;2022-07-29T06:27:22;100420.19;;;19.50;64.98
50310;BME280;36207;51.850;21.698;2022-07-29T06:29:48;100420.64;;;19.57;65.03
50310;BME280;36207;51.850;21.698;2022-07-29T06:32:15;100420.36;;;19.68;64.88
50310;BME280;36207;51.850;21.698;2022-07-29T06:34:41;100420.61;;;19.78;64.65
50310;BME280;36207;51.850;21.698;2022-07-29T06:37:08;100421.73;;;19.90;64.58
50310;BME280;36207;51.850;21.698;2022-07-29T06:39:35;100424.03;;;20.01;64.60
50310;BME280;36207;51.850;21.698;2022-07-29T06:42:05;100423.67;;;20.11;64.46
50310;BME280;36207;51.850;21.698;2022-07-29T06:44:32;100424.50;;;20.19;64.51
50310;BME280;36207;51.850;21.698;2022-07-29T06:47:02;100423.23;;;20.29;64.50
50310;BME280;36207;51.850;21.698;2022-07-29T06:49:28;100421.42;;;20.37;64.26
50310;BME280;36207;51.850;21.698;2022-07-29T06:51:58;100419.07;;;20.43;64.13
50310;BME280;36207;51.850;21.698;2022-07-29T06:54:24;100418.73;;;20.51;64.11
50310;BME280;36207;51.850;21.698;2022-07-29T06:56:50;100421.02;;;20.60;64.05
50310;BME280;36207;51.850;21.698;2022-07-29T06:59:17;100420.31;;;20.67;63.36
50310;BME280;36207;51.850;21.698;2022-07-29T07:01:43;100421.90;;;20.70;63.09
50310;BME280;36207;51.850;21.698;2022-07-29T07:04:10;100419.66;;;20.73;63.19
50310;BME280;36207;51.850;21.698;2022-07-29T07:06:37;100422.53;;;20.81;63.02
50310;BME280;36207;51.850;21.698;2022-07-29T07:09:04;100420.76;;;20.87;63.07
50310;BME280;36207;51.850;21.698;2022-07-29T07:11:30;100427.52;;;20.93;63.04
50310;BME280;36207;51.850;21.698;2022-07-29T07:13:57;100429.25;;;21.00;61.96
50310;BME280;36207;51.850;21.698;2022-07-29T07:16:23;100428.09;;;21.04;62.06
50310;BME280;36207;51.850;21.698;2022-07-29T07:18:49;100424.70;;;21.08;62.03
50310;BME280;36207;51.850;21.698;2022-07-29T07:21:16;100422.77;;;21.14;62.09
50310;BME280;36207;51.850;21.698;2022-07-29T07:23:42;100418.96;;;21.21;62.20
50310;BME280;36207;51.850;21.698;2022-07-29T07:26:08;100417.95;;;21.30;62.44
50310;BME280;36207;51.850;21.698;2022-07-29T07:28:36;100422.95;;;21.41;61.86
50310;BME280;36207;51.850;21.698;2022-07-29T07:31:02;100426.04;;;21.49;61.74
50310;BME280;36207;51.850;21.698;2022-07-29T07:33:28;100430.21;;;21.57;61.38
50310;BME280;36207;51.850;21.698;2022-07-29T07:35:55;100429.78;;;21.66;61.30
50310;BME280;36207;51.850;21.698;2022-07-29T07:38:21;100427.20;;;21.73;60.93
50310;BME280;36207;51.850;21.698;2022-07-29T07:40:47;100432.61;;;21.81;61.01
50310;BME280;36207;51.850;21.698;2022-07-29T07:43:13;100435.39;;;21.90;60.57
50310;BME280;36207;51.850;21.698;2022-07-29T07:45:40;100431.62;;;21.98;60.31
50310;BME280;36207;51.850;21.698;2022-07-29T07:48:07;100428.70;;;22.04;59.95
50310;BME280;36207;51.850;21.698;2022-07-29T07:50:36;100430.77;;;22.11;60.06
50310;BME280;36207;51.850;21.698;2022-07-29T07:53:03;100431.83;;;22.20;60.76
50310;BME280;36207;51.850;21.698;2022-07-29T07:55:29;100430.11;;;22.31;60.92
50310;BME280;36207;51.850;21.698;2022-07-29T07:57:56;100433.08;;;22.43;60.78
50310;BME280;36207;51.850;21.698;2022-07-29T08:00:22;100433.96;;;22.54;60.72
50310;BME280;36207;51.850;21.698;2022-07-29T08:02:49;100434.46;;;22.65;60.53
50310;BME280;36207;51.850;21.698;2022-07-29T08:05:15;100434.55;;;22.75;60.42
50310;BME280;36207;51.850;21.698;2022-07-29T08:07:46;100435.27;;;22.86;60.02
50310;BME280;36207;51.850;21.698;2022-07-29T08:10:17;100433.70;;;22.94;60.02
50310;BME280;36207;51.850;21.698;2022-07-29T08:13:07;100429.48;;;23.02;59.08
50310;BME280;36207;51.850;21.698;2022-07-29T08:15:35;100431.95;;;23.08;58.61
50310;BME280;36207;51.850;21.698;2022-07-29T08:18:02;100437.23;;;23.17;59.28
50310;BME280;36207;51.850;21.698;2022-07-29T08:20:28;100438.23;;;23.25;58.96
50310;BME280;36207;51.850;21.698;2022-07-29T08:22:55;100438.11;;;23.35;59.07
50310;BME280;36207;51.850;21.698;2022-07-29T08:25:22;100435.30;;;23.44;59.11
50310;BME280;36207;51.850;21.698;2022-07-29T08:27:48;100429.85;;;23.53;58.81
50310;BME280;36207;51.850;21.698;2022-07-29T08:30:15;100429.82;;;23.61;58.34
50310;BME280;36207;51.850;21.698;2022-07-29T08:32:41;100431.55;;;23.69;57.88
50310;BME280;36207;51.850;21.698;2022-07-29T08:35:08;100432.20;;;23.76;57.84
50310;BME280;36207;51.850;21.698;2022-07-29T08:37:35;100432.80;;;23.82;56.78
50310;BME280;36207;51.850;21.698;2022-07-29T08:40:01;100431.32;;;23.85;55.74
50310;BME280;36207;51.850;21.698;2022-07-29T08:42:28;100428.90;;;23.90;56.96
50310;BME280;36207;51.850;21.698;2022-07-29T08:44:56;100429.38;;;23.98;56.48
50310;BME280;36207;51.850;21.698;2022-07-29T08:47:23;100430.98;;;24.06;56.14
50310;BME280;36207;51.850;21.698;2022-07-29T08:49:52;100434.77;;;24.08;55.17
50310;BME280;36207;51.850;21.698;2022-07-29T08:52:19;100433.41;;;24.11;55.71
50310;BME280;36207;51.850;21.698;2022-07-29T08:54:47;100431.02;;;24.17;54.89
50310;BME280;36207;51.850;21.698;2022-07-29T08:57:15;100427.08;;;24.21;54.76
50310;BME280;36207;51.850;21.698;2022-07-29T08:59:43;100424.20;;;24.28;55.48
50310;BME280;36207;51.850;21.698;2022-07-29T09:02:20;100423.21;;;24.35;55.12
50310;BME280;36207;51.850;21.698;2022-07-29T09:04:47;100422.89;;;24.42;53.60
50310;BME280;36207;51.850;21.698;2022-07-29T09:07:18;100418.83;;;24.40;52.06
50310;BME280;36207;51.850;21.698;2022-07-29T09:09:45;100416.48;;;24.45;53.38
50310;BME280;36207;51.850;21.698;2022-07-29T09:12:13;100417.17;;;24.55;53.56
50310;BME280;36207;51.850;21.698;2022-07-29T09:14:40;100422.59;;;24.65;53.87
50310;BME280;36207;51.850;21.698;2022-07-29T09:17:07;100422.39;;;24.67;51.59
50310;BME280;36207;51.850;21.698;2022-07-29T09:19:36;100418.20;;;24.69;52.19
50310;BME280;36207;51.850;21.698;2022-07-29T09:22:05;100413.43;;;24.77;53.59
50310;BME280;36207;51.850;21.698;2022-07-29T09:24:42;100410.24;;;24.90;53.63
50310;BME280;36207;51.850;21.698;2022-07-29T09:27:26;100411.87;;;24.97;51.01
50310;BME280;36207;51.850;21.698;2022-07-29T09:29:59;100411.19;;;24.94;48.94
50310;BME280;36207;51.850;21.698;2022-07-29T09:32:27;100410.51;;;24.90;49.86
50310;BME280;36207;51.850;21.698;2022-07-29T09:35:23;100409.09;;;24.89;50.53
50310;BME280;36207;51.850;21.698;2022-07-29T09:37:50;100408.40;;;24.93;50.90
50310;BME280;36207;51.850;21.698;2022-07-29T09:40:22;100407.31;;;25.04;51.12
50310;BME280;36207;51.850;21.698;2022-07-29T09:42:50;100404.11;;;25.17;51.62
50310;BME280;36207;51.850;21.698;2022-07-29T09:45:28;100406.68;;;25.27;50.67
50310;BME280;36207;51.850;21.698;2022-07-29T09:47:55;100403.46;;;25.29;50.22
50310;BME280;36207;51.850;21.698;2022-07-29T09:50:46;100403.20;;;25.19;49.71
50310;BME280;36207;51.850;21.698;2022-07-29T09:53:30;100402.41;;;25.10;48.92
50310;BME280;36207;51.850;21.698;2022-07-29T09:55:57;100402.79;;;25.10;49.54
50310;BME280;36207;51.850;21.698;2022-07-29T09:58:24;100397.30;;;25.14;48.84
50310;BME280;36207;51.850;21.698;2022-07-29T10:00:52;100392.32;;;25.18;49.72
50310;BME280;36207;51.850;21.698;2022-07-29T10:03:19;100390.21;;;25.25;50.08
50310;BME280;36207;51.850;21.698;2022-07-29T10:05:46;100384.11;;;25.31;50.43
50310;BME280;36207;51.850;21.698;2022-07-29T10:08:29;100380.62;;;25.33;50.09
50310;BME280;36207;51.850;21.698;2022-07-29T10:11:13;100379.16;;;25.40;50.12
50310;BME280;36207;51.850;21.698;2022-07-29T10:13:41;100380.89;;;25.50;50.01
50310;BME280;36207;51.850;21.698;2022-07-29T10:16:08;100381.95;;;25.58;48.54
50310;BME280;36207;51.850;21.698;2022-07-29T10:18:35;100378.08;;;25.60;48.99
50310;BME280;36207;51.850;21.698;2022-07-29T10:21:23;100373.65;;;25.61;49.17
50310;BME280;36207;51.850;21.698;2022-07-29T10:23:50;100375.89;;;25.60;48.80
50310;BME280;36207;51.850;21.698;2022-07-29T10:26:17;100375.81;;;25.56;47.79
50310;BME280;36207;51.850;21.698;2022-07-29T10:28:45;100377.15;;;25.46;45.88
50310;BME280;36207;51.850;21.698;2022-07-29T10:31:41;100374.84;;;25.36;46.29
50310;BME280;36207;51.850;21.698;2022-07-29T10:37:14;100366.50;;;25.26;47.18
50310;BME280;36207;51.850;21.698;2022-07-29T10:42:28;100364.92;;;25.29;47.93
50310;BME280;36207;51.850;21.698;2022-07-29T10:44:56;100358.22;;;25.34;47.80
50310;BME280;36207;51.850;21.698;2022-07-29T10:47:24;100355.27;;;25.36;48.01
50310;BME280;36207;51.850;21.698;2022-07-29T10:49:59;100352.27;;;25.36;47.76
50310;BME280;36207;51.850;21.698;2022-07-29T10:52:55;100356.36;;;25.37;47.67
50310;BME280;36207;51.850;21.698;2022-07-29T10:55:38;100355.17;;;25.42;47.41
50310;BME280;36207;51.850;21.698;2022-07-29T10:58:20;100350.05;;;25.49;47.22
50310;BME280;36207;51.850;21.698;2022-07-29T11:00:49;100347.64;;;25.51;46.55
50310;BME280;36207;51.850;21.698;2022-07-29T11:03:48;100349.12;;;25.46;46.48
50310;BME280;36207;51.850;21.698;2022-07-29T11:06:18;100347.91;;;25.43;47.45
50310;BME280;36207;51.850;21.698;2022-07-29T11:08:44;100341.77;;;25.44;47.57
50310;BME280;36207;51.850;21.698;2022-07-29T11:13:50;100338.06;;;25.46;48.21
50310;BME280;36207;51.850;21.698;2022-07-29T11:16:19;100336.71;;;25.54;48.16
50310;BME280;36207;51.850;21.698;2022-07-29T11:21:41;100332.09;;;25.71;47.73
50310;BME280;36207;51.850;21.698;2022-07-29T11:24:13;100335.61;;;25.80;47.64
50310;BME280;36207;51.850;21.698;2022-07-29T11:26:40;100333.77;;;25.83;46.86
50310;BME280;36207;51.850;21.698;2022-07-29T11:29:20;100335.89;;;25.82;46.76
50310;BME280;36207;51.850;21.698;2022-07-29T11:31:51;100332.11;;;25.80;46.41
50310;BME280;36207;51.850;21.698;2022-07-29T11:34:28;100334.17;;;25.78;46.50
50310;BME280;36207;51.850;21.698;2022-07-29T11:44:59;100337.07;;;25.72;46.72
50310;BME280;36207;51.850;21.698;2022-07-29T11:47:28;100337.29;;;25.71;46.15
50310;BME280;36207;51.850;21.698;2022-07-29T11:49:56;100333.46;;;25.69;46.25
50310;BME280;36207;51.850;21.698;2022-07-29T11:52:23;100333.13;;;25.67;46.04
50310;BME280;36207;51.850;21.698;2022-07-29T11:54:59;100329.45;;;25.62;46.07
50310;BME280;36207;51.850;21.698;2022-07-29T11:57:28;100328.52;;;25.58;45.09
50310;BME280;36207;51.850;21.698;2022-07-29T11:59:55;100331.56;;;25.53;43.92
50310;BME280;36207;51.850;21.698;2022-07-29T12:02:24;100329.39;;;25.46;44.98
50310;BME280;36207;51.850;21.698;2022-07-29T12:04:51;100325.98;;;25.46;45.89
50310;BME280;36207;51.850;21.698;2022-07-29T12:07:25;100322.38;;;25.48;45.52
50310;BME280;36207;51.850;21.698;2022-07-29T12:09:52;100317.02;;;25.47;44.81
50310;BME280;36207;51.850;21.698;2022-07-29T12:12:20;100310.52;;;25.46;44.66
50310;BME280;36207;51.850;21.698;2022-07-29T12:14:47;100303.84;;;25.46;45.38
50310;BME280;36207;51.850;21.698;2022-07-29T12:17:27;100302.80;;;25.51;45.55
50310;BME280;36207;51.850;21.698;2022-07-29T12:19:54;100306.43;;;25.53;45.22
50310;BME280;36207;51.850;21.698;2022-07-29T12:22:32;100305.18;;;25.59;45.78
50310;BME280;36207;51.850;21.698;2022-07-29T12:27:36;100304.40;;;25.61;44.35
50310;BME280;36207;51.850;21.698;2022-07-29T12:30:08;100307.30;;;25.62;45.04
50310;BME280;36207;51.850;21.698;2022-07-29T12:32:43;100306.55;;;25.67;45.35
50310;BME280;36207;51.850;21.698;2022-07-29T12:35:13;100307.60;;;25.67;44.70
50310;BME280;36207;51.850;21.698;2022-07-29T12:37:41;100308.84;;;25.63;44.46
50310;BME280;36207;51.850;21.698;2022-07-29T12:40:09;100307.14;;;25.59;45.14
50310;BME280;36207;51.850;21.698;2022-07-29T12:42:36;100302.20;;;25.57;45.49
50310;BME280;36207;51.850;21.698;2022-07-29T12:45:04;100298.77;;;25.54;44.70
50310;BME280;36207;51.850;21.698;2022-07-29T12:47:32;100301.77;;;25.49;44.22
50310;BME280;36207;51.850;21.698;2022-07-29T12:50:13;100298.59;;;25.43;44.53
50310;BME280;36207;51.850;21.698;2022-07-29T12:52:46;100299.17;;;25.35;43.35
50310;BME280;36207;51.850;21.698;2022-07-29T12:55:13;100293.41;;;25.30;43.79
50310;BME280;36207;51.850;21.698;2022-07-29T12:57:48;100291.39;;;25.26;43.21
50310;BME280;36207;51.850;21.698;2022-07-29T13:00:15;100287.77;;;25.19;42.76
50310;BME280;36207;51.850;21.698;2022-07-29T13:02:43;100288.66;;;25.14;43.31
50310;BME280;36207;51.850;21.698;2022-07-29T13:05:10;100290.30;;;25.14;44.28
50310;BME280;36207;51.850;21.698;2022-07-29T13:07:39;100289.24;;;25.16;43.91
50310;BME280;36207;51.850;21.698;2022-07-29T13:10:14;100289.98;;;25.14;43.33
50310;BME280;36207;51.850;21.698;2022-07-29T13:13:08;100285.91;;;25.09;43.72
50310;BME280;36207;51.850;21.698;2022-07-29T13:15:40;100280.48;;;25.07;44.08
50310;BME280;36207;51.850;21.698;2022-07-29T13:18:34;100277.10;;;25.05;44.02
50310;BME280;36207;51.850;21.698;2022-07-29T13:21:13;100276.00;;;25.06;44.23
50310;BME280;36207;51.850;21.698;2022-07-29T13:23:39;100276.71;;;25.07;44.11
50310;BME280;36207;51.850;21.698;2022-07-29T13:26:07;100275.61;;;25.06;43.82
50310;BME280;36207;51.850;21.698;2022-07-29T13:28:33;100274.59;;;25.06;43.74